Time;durP1;ratioP1;P1;durP2;ratioP2;P2;SDS_P1;SDS_P2;PMS_P1;PMS_P2;Temp;Humidity;BMP_temperature;BMP_pressure;BME280_temperature;BME280_humidity;BME280_pressure;Samples;Min_cycle;Max_cycle;Signal;HPM_P1;HPM_P2
2023/01/23 06:40:46;;;;;;;;;42.25;33.00;21.80;45.90;;;;;;108839;1284;34799;-74
2023/01/23 06:43:12;;;;;;;;;37.50;31.50;21.90;44.50;;;;;;111340;1257;45218;-68
2023/01/23 06:45:43;;;;;;;;;40.25;31.75;22.20;44.50;;;;;;111345;1259;54822;-68
2023/01/23 06:48:09;;;;;;;;;44.75;34.00;22.40;44.20;;;;;;112318;1247;56284;-71
2023/01/23 06:50:37;;;;;;;;;38.75;33.00;22.60;43.80;;;;;;112305;1247;49271;-72
2023/01/23 06:53:07;;;;;;;;;44.67;34.00;22.80;43.40;;;;;;111830;1243;611877;-66
2023/01/23 06:55:35;;;;;;;;;41.00;31.00;23.00;43.20;;;;;;112556;1245;44888;-65
2023/01/23 06:58:01;;;;;;;;;36.75;32.00;23.10;42.90;;;;;;112559;1245;54805;-65
2023/01/23 07:00:27;;;;;;;;;36.75;30.25;23.20;42.20;;;;;;112530;1245;56155;-66
2023/01/23 07:02:57;;;;;;;;;39.75;32.75;23.30;41.90;;;;;;112544;1246;50012;-66
2023/01/23 07:05:23;;;;;;;;;36.00;31.00;23.40;41.70;;;;;;112506;1241;49014;-65
2023/01/23 07:07:50;;;;;;;;;38.75;32.50;23.40;41.40;;;;;;112553;1246;45395;-66
2023/01/23 07:10:17;;;;;;;;;33.00;27.75;23.50;41.20;;;;;;112559;1246;54862;-66
2023/01/23 07:12:43;;;;;;;;;34.00;30.00;23.50;41.00;;;;;;112473;1246;55787;-66
2023/01/23 07:15:09;;;;;;;;;35.50;32.50;23.50;40.80;;;;;;112351;1241;49726;-65
2023/01/23 07:17:36;;;;;;;;;37.00;30.75;23.60;40.80;;;;;;112302;1246;49136;-66
2023/01/23 07:20:02;;;;;;;;;37.50;30.75;23.60;40.60;;;;;;112317;1241;45941;-66
2023/01/23 07:22:28;;;;;;;;;38.50;31.00;23.60;40.50;;;;;;112306;1246;55348;-66
2023/01/23 07:24:54;;;;;;;;;35.75;31.00;23.60;40.40;;;;;;112312;1243;56138;-65
2023/01/23 07:27:21;;;;;;;;;36.75;29.00;23.60;40.50;;;;;;112281;1243;49929;-65
2023/01/23 07:29:47;;;;;;;;;33.75;29.75;23.60;40.20;;;;;;112310;1246;49122;-65
2023/01/23 07:32:13;;;;;;;;;38.00;31.25;23.60;40.10;;;;;;112291;1246;45689;-66
2023/01/23 07:34:39;;;;;;;;;39.75;33.75;23.60;40.10;;;;;;112331;1246;56484;-65
2023/01/23 07:37:05;;;;;;;;;38.25;33.75;23.60;40.00;;;;;;112309;1241;56209;-66
2023/01/23 07:39:32;;;;;;;;;35.25;32.00;23.60;40.00;;;;;;112306;1241;49984;-65
2023/01/23 07:41:58;;;;;;;;;30.00;28.25;23.60;40.00;;;;;;112299;1246;48987;-65
2023/01/23 07:44:24;;;;;;;;;39.00;33.67;23.60;40.00;;;;;;112286;1246;45070;-70
2023/01/23 07:46:51;;;;;;;;;34.25;29.25;23.60;40.30;;;;;;112326;1242;56475;-68
2023/01/23 07:49:17;;;;;;;;;34.00;29.00;23.60;40.20;;;;;;112306;1245;55317;-69
2023/01/23 07:51:43;;;;;;;;;33.75;29.00;23.60;40.20;;;;;;112315;1242;48935;-69
2023/01/23 07:54:09;;;;;;;;;30.00;27.75;23.60;40.20;;;;;;112327;1246;49289;-69
2023/01/23 07:56:36;;;;;;;;;37.00;29.50;23.60;40.20;;;;;;112302;1241;45224;-67
2023/01/23 07:59:02;;;;;;;;;35.50;31.00;23.60;40.20;;;;;;112321;1246;55267;-66
2023/01/23 08:01:28;;;;;;;;;39.75;32.75;23.60;40.20;;;;;;112338;1242;56396;-70
2023/01/23 08:03:54;;;;;;;;;39.00;33.00;23.60;40.10;;;;;;112322;1246;50362;-70
2023/01/23 08:06:21;;;;;;;;;35.50;29.75;23.60;39.90;;;;;;112329;1243;49848;-70
2023/01/23 08:08:48;;;;;;;;;34.00;30.67;23.70;39.80;;;;;;112320;1244;44600;-75
2023/01/23 08:11:15;;;;;;;;;32.00;29.50;23.70;40.10;;;;;;112331;1247;55272;-75
2023/01/23 08:13:41;;;;;;;;;34.75;30.00;23.70;40.40;;;;;;112318;1241;56575;-76
2023/01/23 08:16:08;;;;;;;;;26.25;24.25;23.70;40.60;;;;;;112277;1246;50116;-74
2023/01/23 08:18:34;;;;;;;;;35.75;31.25;23.70;40.80;;;;;;112366;1246;48852;-74
2023/01/23 08:21:02;;;;;;;;;29.75;28.25;23.70;41.00;;;;;;112344;1246;46000;-73
2023/01/23 08:23:33;;;;;;;;;27.67;26.33;23.80;41.10;;;;;;112567;1246;55303;-68
2023/01/23 08:26:03;;;;;;;;;37.25;32.25;23.80;41.00;;;;;;112541;1245;56504;-73
2023/01/23 08:28:29;;;;;;;;;32.50;28.50;23.80;40.30;;;;;;112353;1245;49884;-71
2023/01/23 08:31:00;;;;;;;;;28.00;27.00;23.80;40.70;;;;;;112521;1246;49871;-69
2023/01/23 08:33:26;;;;;;;;;32.00;28.00;23.80;40.90;;;;;;112582;1246;44727;-69
2023/01/23 08:35:54;;;;;;;;;29.75;27.00;23.90;41.10;;;;;;112566;1245;55973;-68
2023/01/23 08:38:21;;;;;;;;;27.00;24.00;23.90;41.20;;;;;;112567;1246;56165;-69
2023/01/23 08:40:48;;;;;;;;;29.75;27.75;23.90;41.20;;;;;;112535;1246;49984;-67
2023/01/23 08:43:15;;;;;;;;;26.00;22.75;23.90;41.30;;;;;;112560;1245;50431;-69
2023/01/23 08:45:50;;;;;;;;;27.00;24.00;24.00;41.30;;;;;;112555;1245;44286;-68
2023/01/23 08:48:18;;;;;;;;;29.75;25.25;24.00;41.30;;;;;;112558;1243;54874;-69
2023/01/23 08:50:44;;;;;;;;;32.50;25.50;24.00;41.40;;;;;;112536;1245;56147;-72
2023/01/23 08:53:11;;;;;;;;;30.75;27.00;24.00;41.40;;;;;;112550;1245;49713;-69
2023/01/23 08:55:37;;;;;;;;;24.75;23.50;24.10;41.50;;;;;;112567;1241;48937;-70
2023/01/23 08:58:09;;;;;;;;;31.75;28.50;24.10;41.50;;;;;;112556;1245;44309;-68
2023/01/23 09:00:35;;;;;;;;;31.33;28.33;24.10;41.70;;;;;;112562;1246;55724;-71
2023/01/23 09:03:02;;;;;;;;;30.00;26.50;24.10;41.60;;;;;;112546;1245;56923;-73
2023/01/23 09:05:29;;;;;;;;;24.50;23.25;24.10;41.60;;;;;;112553;1245;49832;-70
2023/01/23 09:07:57;;;;;;;;;26.50;22.75;24.10;41.60;;;;;;112528;1245;49737;-73
2023/01/23 09:10:24;;;;;;;;;25.25;24.00;24.10;41.70;;;;;;112552;1245;45032;-76
2023/01/23 09:12:54;;;;;;;;;27.50;25.25;24.20;41.70;;;;;;112354;1247;55297;-71
2023/01/23 09:15:24;;;;;;;;;27.00;24.00;24.20;41.70;;;;;;112544;1244;55491;-72
2023/01/23 09:17:50;;;;;;;;;27.00;24.75;24.20;41.80;;;;;;112568;1246;49802;-71
2023/01/23 09:20:16;;;;;;;;;27.00;24.00;24.20;41.80;;;;;;112556;1246;50243;-71
2023/01/23 09:22:43;;;;;;;;;33.50;26.75;24.20;41.80;;;;;;112601;1241;44756;-72
2023/01/23 09:25:10;;;;;;;;;25.75;22.00;24.20;41.80;;;;;;112583;1242;55931;-75
2023/01/23 09:27:36;;;;;;;;;28.50;26.00;24.20;41.90;;;;;;112373;1246;55705;-73
2023/01/23 09:30:03;;;;;;;;;28.00;22.25;24.20;42.00;;;;;;112558;1246;49808;-69
2023/01/23 09:32:29;;;;;;;;;31.00;27.50;24.20;41.80;;;;;;112556;1246;49529;-72
2023/01/23 09:34:56;;;;;;;;;33.25;27.75;24.20;41.90;;;;;;112560;1245;45362;-72
2023/01/23 09:37:22;;;;;;;;;28.25;26.75;24.30;42.00;;;;;;112575;1245;55659;-77
2023/01/23 09:39:48;;;;;;;;;29.00;26.75;24.30;42.00;;;;;;112530;1246;55455;-76
2023/01/23 09:42:18;;;;;;;;;28.33;25.00;24.30;42.00;;;;;;112539;1244;49135;-77
2023/01/23 09:44:48;;;;;;;;;26.50;24.00;24.30;42.10;;;;;;112571;1245;49958;-73
2023/01/23 09:47:28;;;;;;;;;27.75;25.00;24.30;42.10;;;;;;112557;1246;44510;-74
2023/01/23 09:49:59;;;;;;;;;26.50;21.25;24.30;42.00;;;;;;112355;1243;55690;-72
2023/01/23 09:52:32;;;;;;;;;23.00;20.50;24.30;42.00;;;;;;112534;1247;56707;-71
2023/01/23 09:55:19;;;;;;;;;26.00;24.00;24.30;42.10;;;;;;112555;1246;49806;-69
2023/01/23 09:57:51;;;;;;;;;27.50;23.00;24.30;42.10;;;;;;112558;1241;49587;-69
2023/01/23 10:00:29;;;;;;;;;29.75;26.75;24.40;42.40;;;;;;112561;1247;44239;-68
2023/01/23 10:02:56;;;;;;;;;27.50;26.00;24.40;42.20;;;;;;112518;1245;55293;-70
2023/01/23 10:05:41;;;;;;;;;30.00;23.75;24.40;42.30;;;;;;112532;1245;55962;-71
2023/01/23 10:08:54;;;;;;;;;28.67;26.33;24.40;42.20;;;;;;112555;1246;49500;-71
2023/01/23 10:11:23;;;;;;;;;25.50;22.25;24.40;42.20;;;;;;112249;1246;50826;-71
2023/01/23 10:14:29;;;;;;;;;27.25;25.50;24.40;42.20;;;;;;112539;1246;44472;-71
2023/01/23 10:17:14;;;;;;;;;26.00;23.75;24.40;42.20;;;;;;112246;1246;56709;-69
2023/01/23 10:19:57;;;;;;;;;25.50;23.00;24.40;42.20;;;;;;112240;1247;55431;-70
2023/01/23 10:22:40;;;;;;;;;26.75;23.00;24.50;42.30;;;;;;112563;1246;49159;-71
2023/01/23 10:25:16;;;;;;;;;30.50;24.00;24.50;42.20;;;;;;112559;1245;49808;-71
2023/01/23 10:27:45;;;;;;;;;29.33;24.00;24.50;42.30;;;;;;112239;1243;44965;-69
2023/01/23 10:30:19;;;;;;;;;23.75;22.00;24.50;42.40;;;;;;112504;1246;56329;-73
2023/01/23 10:32:58;;;;;;;;;28.33;27.00;24.50;42.20;;;;;;112534;1246;56123;-70
2023/01/23 10:35:28;;;;;;;;;29.75;26.50;24.50;42.30;;;;;;112554;1245;49850;-71
2023/01/23 10:38:01;;;;;;;;;30.25;27.00;24.50;42.30;;;;;;112537;1243;49633;-70
2023/01/23 10:43:18;;;;;;;;;30.25;25.50;24.50;42.40;;;;;;112580;1246;55796;-67
2023/01/23 10:45:52;;;;;;;;;28.75;23.50;24.50;42.40;;;;;;112560;1244;55674;-66
2023/01/23 10:48:31;;;;;;;;;29.75;27.00;24.50;42.20;;;;;;112031;1246;49997;-71
2023/01/23 10:50:58;;;;;;;;;31.00;25.33;24.50;42.10;;;;;;112400;1247;50058;-72
2023/01/23 10:53:25;;;;;;;;;22.25;21.25;24.60;42.20;;;;;;112181;1245;44541;-68
2023/01/23 10:55:56;;;;;;;;;26.00;22.75;24.60;42.00;;;;;;112580;1241;56220;-69
2023/01/23 10:58:35;;;;;;;;;25.75;24.00;24.70;42.00;;;;;;112186;1246;56521;-69
2023/01/23 11:01:03;;;;;;;;;27.75;26.50;24.70;41.80;;;;;;112558;1245;50089;-69
2023/01/23 11:03:31;;;;;;;;;25.75;20.00;24.70;41.90;;;;;;112528;1245;49772;-74
2023/01/23 11:06:01;;;;;;;;;33.00;31.25;24.60;41.90;;;;;;112542;1246;44929;-69
2023/01/23 11:08:35;;;;;;;;;26.25;24.75;24.60;42.00;;;;;;112576;1246;56097;-76
2023/01/23 11:11:19;;;;;;;;;32.33;28.67;24.60;42.20;;;;;;112567;1245;56287;-73
2023/01/23 11:15:47;;;;;;;;;25.25;21.25;24.60;41.70;;;;;;109247;1282;35849;-69
2023/01/23 11:18:32;;;;;;;;;27.25;23.50;24.70;42.20;;;;;;112087;1244;45737;-72
2023/01/23 11:20:59;;;;;;;;;26.75;22.50;24.70;42.10;;;;;;112081;1248;55630;-67
2023/01/23 11:23:26;;;;;;;;;27.75;25.50;24.70;42.00;;;;;;112081;1248;55477;-73
2023/01/23 11:25:54;;;;;;;;;25.50;22.25;24.70;42.10;;;;;;112122;1250;49391;-74
2023/01/23 11:28:26;;;;;;;;;29.25;24.25;24.70;42.30;;;;;;111637;1250;639913;-70
2023/01/23 11:31:01;;;;;;;;;32.00;27.75;24.70;42.20;;;;;;112314;1247;44933;-70
2023/01/23 11:33:46;;;;;;;;;29.50;24.00;24.80;42.50;;;;;;112327;1244;55197;-70
2023/01/23 11:36:15;;;;;;;;;24.50;22.75;24.80;42.30;;;;;;112287;1248;55591;-71
2023/01/23 11:38:56;;;;;;;;;26.50;24.00;24.80;42.30;;;;;;112312;1247;49485;-74
2023/01/23 11:41:28;;;;;;;;;21.75;20.00;24.90;42.30;;;;;;112298;1243;49014;-70
2023/01/23 11:43:54;;;;;;;;;26.50;22.00;24.90;42.30;;;;;;112355;1244;45333;-71
2023/01/23 11:46:32;;;;;;;;;27.25;22.75;25.00;42.30;;;;;;112324;1244;55794;-72
2023/01/23 11:49:13;;;;;;;;;24.75;21.00;25.00;42.30;;;;;;112337;1247;56454;-72
2023/01/23 11:51:48;;;;;;;;;24.25;21.50;25.00;42.20;;;;;;112328;1247;49084;-73
2023/01/23 11:54:39;;;;;;;;;24.67;22.00;25.10;42.30;;;;;;112313;1243;49728;-73
2023/01/23 11:57:10;;;;;;;;;23.75;22.25;25.10;42.20;;;;;;112830;1243;45097;-75
2023/01/23 11:59:55;;;;;;;;;24.00;22.67;25.20;42.20;;;;;;112781;1243;55348;-77
2023/01/23 12:05:05;;;;;;;;;30.00;27.50;25.20;44.60;;;;;;109257;1281;35757;-72
2023/01/23 12:07:46;;;;;;;;;25.25;22.25;25.30;42.30;;;;;;111575;1255;44758;-71
2023/01/23 12:10:23;;;;;;;;;23.50;22.25;25.30;42.30;;;;;;111546;1253;55958;-70
2023/01/23 12:13:01;;;;;;;;;24.75;21.00;25.40;42.30;;;;;;111568;1253;57018;-68
2023/01/23 12:15:42;;;;;;;;;24.67;21.67;25.40;42.20;;;;;;111570;1253;50505;-67
2023/01/23 12:18:37;;;;;;;;;23.00;20.50;25.50;42.30;;;;;;111467;1256;143345;-67
2023/01/23 12:21:38;;;;;;;;;29.25;23.25;25.50;42.20;;;;;;111705;1253;44434;-71
2023/01/23 12:24:32;;;;;;;;;19.00;15.00;25.60;42.30;;;;;;111731;1254;56217;-71
2023/01/23 12:27:05;;;;;;;;;19.25;17.50;25.70;41.10;;;;;;112116;1250;56517;-67
2023/01/23 12:29:43;;;;;;;;;21.75;20.25;25.70;40.60;;;;;;112102;1250;50145;-68
2023/01/23 12:32:13;;;;;;;;;20.50;18.75;25.70;40.50;;;;;;112125;1250;49125;-67
2023/01/23 12:35:16;;;;;;;;;20.50;18.25;25.70;40.50;;;;;;112111;1250;45251;-68
2023/01/23 12:38:15;;;;;;;;;22.25;17.25;25.70;41.00;;;;;;112118;1250;56558;-66
2023/01/23 12:41:22;;;;;;;;;23.75;20.25;25.70;40.50;;;;;;112140;1249;56975;-67
2023/01/23 12:43:53;;;;;;;;;20.75;17.50;25.60;40.50;;;;;;112101;1244;49640;-65
2023/01/23 12:46:41;;;;;;;;;23.75;20.50;25.60;40.50;;;;;;112131;1246;49037;-64
2023/01/23 12:49:21;;;;;;;;;22.00;17.50;25.50;40.80;;;;;;112113;1250;45141;-79
2023/01/23 12:52:15;;;;;;;;;24.50;16.00;25.50;40.70;;;;;;112147;1250;55067;-70
2023/01/23 12:54:50;;;;;;;;;18.25;16.00;25.40;40.70;;;;;;112079;1244;56782;-69
2023/01/23 12:57:38;;;;;;;;;16.00;15.00;25.40;40.70;;;;;;112087;1250;49173;-71
2023/01/23 13:00:30;;;;;;;;;16.00;15.00;25.30;40.60;;;;;;112048;1247;50016;-72
2023/01/23 13:03:35;;;;;;;;;17.75;17.00;25.30;40.60;;;;;;112091;1250;44273;-73
2023/01/23 13:06:20;;;;;;;;;19.25;17.50;25.20;40.70;;;;;;112102;1249;55052;-70
2023/01/23 13:09:05;;;;;;;;;17.00;14.25;25.20;40.90;;;;;;112123;1247;56358;-69
2023/01/23 13:12:20;;;;;;;;;17.00;14.50;25.10;40.60;;;;;;112081;1250;49701;-77
2023/01/23 13:15:12;;;;;;;;;13.50;11.75;25.10;40.50;;;;;;111571;1251;49744;-75
2023/01/23 13:17:58;;;;;;;;;15.00;12.25;25.00;39.60;;;;;;112114;1250;45633;-75
2023/01/23 13:23:29;;;;;;;;;28.75;27.50;24.70;39.00;;;;;;112767;1238;55293;-69
2023/01/23 13:26:15;;;;;;;;;26.00;23.00;24.60;39.60;;;;;;112821;1242;49862;-67
2023/01/23 13:28:44;;;;;;;;;18.75;15.00;24.50;39.30;;;;;;112817;1238;49710;-71
2023/01/23 13:31:33;;;;;;;;;16.50;13.75;24.30;38.50;;;;;;112822;1242;46153;-72
2023/01/23 13:34:03;;;;;;;;;18.50;17.00;24.10;38.20;;;;;;112813;1242;55507;-73
2023/01/23 13:36:35;;;;;;;;;16.50;15.00;23.90;38.90;;;;;;112758;1243;55965;-73
2023/01/23 13:39:20;;;;;;;;;14.75;12.75;23.80;38.00;;;;;;112781;1243;49205;-75
2023/01/23 13:41:50;;;;;;;;;17.75;15.75;23.70;39.80;;;;;;112784;1242;49426;-72
2023/01/23 13:44:30;;;;;;;;;14.75;13.00;23.60;40.20;;;;;;112770;1240;44891;-74
2023/01/23 13:49:49;;;;;;;;;24.25;21.75;23.50;39.30;;;;;;112798;1242;55407;-72
2023/01/23 13:50:11;;;;;;;;;28.00;26.25;23.50;40.70;;;;;;112785;1242;55292;-74
2023/01/23 13:58:34;;;;;;;;;21.00;17.25;23.70;41.00;;;;;;112783;1242;45115;-71
2023/01/23 14:06:39;;;;;;;;;21.75;17.75;23.80;38.30;;;;;;112799;1242;49068;-71
2023/01/23 14:09:23;;;;;;;;;18.75;17.00;23.70;38.30;;;;;;112764;1242;49676;-71
2023/01/23 14:11:57;;;;;;;;;21.00;18.00;23.70;37.90;;;;;;112796;1242;44763;-71
2023/01/23 14:17:11;;;;;;;;;15.50;14.00;23.60;37.30;;;;;;112805;1242;56901;-71
2023/01/23 14:19:52;;;;;;;;;15.25;14.25;23.60;37.00;;;;;;112783;1238;49067;-71
2023/01/23 14:22:19;;;;;;;;;16.50;12.50;23.50;36.70;;;;;;112781;1243;50393;-71
2023/01/23 14:24:48;;;;;;;;;18.75;14.00;23.50;36.50;;;;;;112791;1241;45928;-71
2023/01/23 14:27:24;;;;;;;;;15.75;13.75;23.40;36.20;;;;;;112810;1238;55320;-71
2023/01/23 14:30:00;;;;;;;;;15.75;14.75;23.30;36.20;;;;;;112807;1242;56013;-71
2023/01/23 14:32:30;;;;;;;;;15.75;13.75;23.20;35.90;;;;;;112784;1243;49113;-71
2023/01/23 14:34:57;;;;;;;;;17.00;16.00;23.10;36.00;;;;;;112756;1242;49735;-71
2023/01/23 14:37:25;;;;;;;;;18.25;15.25;23.10;35.90;;;;;;112791;1243;44632;-71
2023/01/23 14:39:55;;;;;;;;;18.75;14.00;23.00;35.90;;;;;;112830;1243;55015;-71
2023/01/23 14:42:28;;;;;;;;;19.67;16.67;22.90;35.80;;;;;;112782;1243;55646;-71
2023/01/23 14:44:56;;;;;;;;;18.00;16.67;22.80;35.90;;;;;;112796;1238;49288;-71
2023/01/23 14:47:41;;;;;;;;;18.25;15.00;22.80;36.00;;;;;;112804;1242;49186;-69
2023/01/23 14:50:19;;;;;;;;;17.00;15.00;22.70;35.90;;;;;;112780;1242;45567;-70
2023/01/23 14:53:05;;;;;;;;;15.00;14.00;22.60;35.70;;;;;;112779;1238;55618;-70
2023/01/23 14:55:39;;;;;;;;;16.00;14.75;22.50;35.60;;;;;;112772;1242;55767;-69
2023/01/23 14:58:09;;;;;;;;;19.50;15.50;22.50;35.70;;;;;;112773;1242;50146;-70
2023/01/23 15:00:37;;;;;;;;;16.00;15.00;22.40;35.60;;;;;;112787;1242;50287;-70
2023/01/23 15:03:04;;;;;;;;;14.75;13.75;22.30;35.50;;;;;;112755;1243;44495;-71
2023/01/23 15:05:32;;;;;;;;;20.25;17.00;22.30;35.70;;;;;;112901;1242;55958;-70
2023/01/23 15:08:06;;;;;;;;;15.50;14.25;22.20;35.70;;;;;;112793;1242;56870;-71
2023/01/23 15:10:44;;;;;;;;;17.00;16.00;22.10;35.50;;;;;;112785;1243;49529;-70
2023/01/23 15:13:22;;;;;;;;;22.25;18.75;22.10;35.60;;;;;;112775;1243;49835;-70
2023/01/23 15:15:56;;;;;;;;;24.25;21.75;22.00;35.70;;;;;;112760;1238;45041;-70
2023/01/23 15:18:26;;;;;;;;;25.00;20.67;21.90;36.40;;;;;;112801;1238;55148;-70
2023/01/23 15:20:55;;;;;;;;;22.75;18.25;21.90;36.40;;;;;;112777;1239;55428;-71
2023/01/23 15:23:32;;;;;;;;;21.00;19.75;21.80;36.50;;;;;;112764;1243;49130;-71
2023/01/23 15:26:11;;;;;;;;;26.25;21.00;21.70;36.70;;;;;;112785;1238;50241;-70
2023/01/23 15:28:54;;;;;;;;;22.00;20.25;21.70;36.80;;;;;;112783;1242;44714;-67
2023/01/23 15:31:38;;;;;;;;;19.25;17.25;21.70;37.30;;;;;;112760;1242;55409;-67
2023/01/23 15:34:14;;;;;;;;;20.50;17.75;21.70;38.00;;;;;;112678;1243;55916;-67
2023/01/23 15:37:07;;;;;;;;;24.25;19.75;21.90;38.30;;;;;;112734;1238;49402;-71
2023/01/23 15:39:48;;;;;;;;;20.00;18.75;22.10;37.10;;;;;;112769;1243;48906;-71
2023/01/23 15:42:15;;;;;;;;;17.50;15.00;22.20;38.00;;;;;;112851;1238;44962;-72
2023/01/23 15:44:42;;;;;;;;;27.25;19.00;22.20;39.40;;;;;;112836;1242;56491;-69
2023/01/23 15:47:10;;;;;;;;;20.50;18.75;22.20;39.60;;;;;;112848;1238;55545;-67
2023/01/23 15:49:38;;;;;;;;;20.00;17.75;22.20;39.60;;;;;;112817;1242;49485;-67
2023/01/23 15:52:26;;;;;;;;;24.25;21.75;22.20;39.30;;;;;;112799;1242;49322;-67
2023/01/23 15:54:56;;;;;;;;;22.50;19.75;22.20;39.20;;;;;;112764;1242;44633;-69
2023/01/23 15:57:23;;;;;;;;;20.75;17.00;22.30;39.20;;;;;;112774;1242;56143;-65
2023/01/23 15:59:50;;;;;;;;;23.25;18.25;22.30;39.30;;;;;;112768;1242;55395;-69
2023/01/23 16:02:22;;;;;;;;;22.75;20.00;22.30;39.40;;;;;;112765;1242;49440;-71
2023/01/23 16:04:49;;;;;;;;;24.33;19.33;22.30;39.60;;;;;;112772;1238;48980;-73
2023/01/23 16:07:23;;;;;;;;;23.50;19.00;22.30;40.10;;;;;;112746;1243;44063;-74
2023/01/23 16:09:50;;;;;;;;;24.00;20.50;22.40;39.90;;;;;;112772;1242;55132;-72
2023/01/23 16:12:19;;;;;;;;;21.25;19.75;22.40;39.90;;;;;;112771;1244;55793;-72
2023/01/23 16:14:46;;;;;;;;;26.00;21.50;22.40;39.80;;;;;;112775;1238;49227;-71
2023/01/23 16:17:13;;;;;;;;;27.25;19.00;22.40;39.90;;;;;;112770;1242;49497;-72
2023/01/23 16:19:40;;;;;;;;;23.00;20.67;22.40;39.90;;;;;;112768;1243;45303;-68
2023/01/23 16:22:11;;;;;;;;;26.50;21.00;22.40;40.20;;;;;;112797;1238;55197;-68
2023/01/23 16:24:40;;;;;;;;;21.00;20.00;22.40;39.90;;;;;;112894;1241;55334;-69
2023/01/23 16:27:14;;;;;;;;;21.75;19.00;22.50;39.80;;;;;;112815;1243;49407;-69
2023/01/23 16:29:42;;;;;;;;;20.00;17.00;22.40;39.60;;;;;;113084;1241;49563;-67
2023/01/23 16:32:10;;;;;;;;;26.00;23.00;22.40;39.20;;;;;;113109;1241;45331;-67
2023/01/23 16:34:37;;;;;;;;;23.75;21.75;22.40;39.70;;;;;;113097;1241;55392;-67
2023/01/23 16:37:13;;;;;;;;;21.00;18.00;22.40;39.70;;;;;;113058;1241;56223;-66
2023/01/23 16:39:41;;;;;;;;;20.00;17.75;22.40;39.80;;;;;;113087;1241;49689;-66
2023/01/23 16:42:21;;;;;;;;;20.75;17.25;22.40;39.80;;;;;;113096;1241;49132;-66
2023/01/23 16:44:48;;;;;;;;;21.25;19.75;22.30;39.80;;;;;;113083;1241;45701;-69
2023/01/23 16:47:15;;;;;;;;;25.25;21.25;22.30;39.90;;;;;;113082;1239;55916;-67
2023/01/23 16:49:42;;;;;;;;;23.25;20.50;22.30;40.00;;;;;;113087;1241;55847;-66
2023/01/23 16:52:13;;;;;;;;;22.25;17.25;22.30;40.00;;;;;;113096;1241;49990;-66
2023/01/23 16:54:41;;;;;;;;;18.75;17.00;22.30;40.10;;;;;;113096;1241;49167;-67
2023/01/23 16:57:18;;;;;;;;;20.00;17.00;22.30;40.10;;;;;;113109;1237;45185;-72
2023/01/23 16:59:47;;;;;;;;;20.25;18.00;22.30;40.10;;;;;;113100;1241;55630;-69
2023/01/23 17:02:17;;;;;;;;;18.50;17.25;22.30;40.20;;;;;;112771;1243;56438;-68
2023/01/23 17:04:44;;;;;;;;;22.75;21.00;22.30;40.10;;;;;;112801;1242;49668;-68
2023/01/23 17:07:16;;;;;;;;;21.75;20.75;22.30;40.10;;;;;;112754;1240;50444;-67
2023/01/23 17:09:44;;;;;;;;;25.00;22.00;22.30;40.10;;;;;;112779;1239;44952;-66
2023/01/23 17:12:16;;;;;;;;;27.50;24.00;22.30;40.30;;;;;;112792;1238;56874;-68
2023/01/23 17:14:45;;;;;;;;;24.75;22.00;22.30;40.50;;;;;;112767;1238;56015;-65
2023/01/23 17:17:15;;;;;;;;;25.75;22.75;22.30;40.70;;;;;;112789;1242;49658;-71
2023/01/23 17:19:42;;;;;;;;;31.25;27.00;22.30;40.90;;;;;;112768;1242;49105;-68
2023/01/23 17:22:24;;;;;;;;;39.00;33.00;22.30;40.60;;;;;;112893;1242;44817;-67
2023/01/23 17:24:51;;;;;;;;;35.50;29.25;22.30;40.10;;;;;;112757;1238;55462;-68
2023/01/23 17:27:18;;;;;;;;;31.75;29.75;22.40;40.10;;;;;;112782;1238;55262;-73
2023/01/23 17:29:45;;;;;;;;;28.50;25.00;22.40;40.10;;;;;;112758;1242;49066;-69
2023/01/23 17:32:28;;;;;;;;;30.00;27.75;22.40;40.20;;;;;;112751;1242;50123;-69
2023/01/23 17:34:56;;;;;;;;;29.50;28.25;22.40;40.20;;;;;;112766;1238;44352;-67
2023/01/23 17:37:23;;;;;;;;;31.25;28.50;22.40;40.20;;;;;;112782;1242;56370;-67
2023/01/23 17:39:51;;;;;;;;;39.00;33.00;22.50;40.30;;;;;;112777;1240;55589;-76
2023/01/23 17:42:18;;;;;;;;;29.75;26.50;22.50;40.40;;;;;;112772;1243;49365;-67
2023/01/23 17:44:45;;;;;;;;;34.25;27.75;22.50;40.30;;;;;;112758;1242;49432;-67
2023/01/23 17:47:12;;;;;;;;;32.50;27.75;22.50;40.30;;;;;;112796;1242;44751;-67
2023/01/23 17:49:45;;;;;;;;;27.75;24.75;22.50;40.30;;;;;;112790;1243;55941;-67
2023/01/23 17:52:12;;;;;;;;;28.25;25.75;22.50;40.30;;;;;;112747;1238;56234;-67
2023/01/23 17:54:39;;;;;;;;;28.25;26.25;22.50;40.40;;;;;;112772;1238;49459;-67
2023/01/23 17:57:06;;;;;;;;;31.50;25.25;22.50;40.30;;;;;;112741;1242;49433;-67
2023/01/23 17:59:33;;;;;;;;;30.25;25.00;22.60;40.50;;;;;;112771;1243;44909;-68
2023/01/23 18:02:00;;;;;;;;;31.50;27.00;22.60;40.80;;;;;;112792;1239;55854;-68
2023/01/23 18:04:27;;;;;;;;;24.50;23.00;22.60;40.50;;;;;;112762;1238;56947;-68
2023/01/23 18:06:54;;;;;;;;;23.67;21.67;22.60;40.60;;;;;;112773;1238;50270;-68
2023/01/23 18:09:21;;;;;;;;;28.75;25.50;22.60;40.60;;;;;;112794;1243;49630;-68
2023/01/23 18:11:51;;;;;;;;;29.25;24.00;22.60;40.70;;;;;;112774;1243;45308;-70
2023/01/23 18:14:36;;;;;;;;;27.75;21.75;22.60;40.90;;;;;;112810;1243;56530;-70
2023/01/23 18:17:25;;;;;;;;;28.25;24.50;22.60;41.10;;;;;;112812;1242;55429;-68
2023/01/23 18:19:52;;;;;;;;;31.75;27.50;22.70;41.40;;;;;;112886;1244;49415;-66
2023/01/23 18:22:20;;;;;;;;;30.00;26.25;22.70;41.60;;;;;;112769;1238;49115;-69
2023/01/23 18:24:47;;;;;;;;;30.00;23.00;22.70;41.30;;;;;;112769;1242;44964;-69
2023/01/23 18:27:24;;;;;;;;;26.75;24.25;22.70;41.90;;;;;;112789;1240;55885;-68
2023/01/23 18:30:21;;;;;;;;;27.00;25.50;22.70;42.10;;;;;;112776;1243;55232;-72
2023/01/23 18:33:19;;;;;;;;;32.50;27.00;22.70;42.20;;;;;;112770;1242;49175;-69
2023/01/23 18:35:58;;;;;;;;;26.50;23.75;22.80;42.60;;;;;;112764;1243;48886;-71
2023/01/23 18:38:42;;;;;;;;;29.00;27.50;22.80;42.80;;;;;;112791;1242;44602;-69
2023/01/23 18:41:15;;;;;;;;;28.00;23.00;22.80;42.90;;;;;;112756;1242;56104;-69
2023/01/23 18:44:08;;;;;;;;;25.00;22.00;22.80;42.90;;;;;;112726;1242;55891;-67
2023/01/23 18:46:35;;;;;;;;;26.50;25.00;22.90;42.90;;;;;;112685;1243;49320;-68
2023/01/23 18:49:03;;;;;;;;;27.00;24.00;22.90;42.90;;;;;;112787;1242;48758;-68
2023/01/23 18:51:53;;;;;;;;;28.25;24.00;23.00;43.00;;;;;;112760;1242;45372;-67
2023/01/23 18:54:38;;;;;;;;;26.00;22.25;23.00;43.00;;;;;;112756;1242;55999;-67
2023/01/23 18:57:30;;;;;;;;;25.00;22.75;23.00;43.00;;;;;;112770;1243;56083;-69
2023/01/23 19:00:27;;;;;;;;;25.50;24.00;23.00;43.00;;;;;;112783;1242;50768;-71
2023/01/23 19:03:04;;;;;;;;;29.00;26.50;23.10;43.20;;;;;;112719;1243;50221;-73
2023/01/23 19:05:32;;;;;;;;;27.33;24.67;23.10;44.00;;;;;;112781;1243;45336;-72
2023/01/23 19:08:01;;;;;;;;;27.00;23.75;23.20;44.80;;;;;;112794;1242;56096;-72
2023/01/23 19:10:30;;;;;;;;;36.00;25.00;23.20;45.20;;;;;;112812;1240;55727;-73
2023/01/23 19:13:06;;;;;;;;;31.00;24.67;23.20;45.60;;;;;;112781;1242;49185;-71
2023/01/23 19:15:47;;;;;;;;;26.50;25.00;23.30;46.00;;;;;;112779;1242;49262;-70
2023/01/23 19:18:43;;;;;;;;;27.25;24.25;23.30;46.10;;;;;;112770;1242;44752;-71
2023/01/23 19:21:14;;;;;;;;;23.75;20.75;23.30;46.30;;;;;;112743;1243;55885;-72
2023/01/23 19:23:44;;;;;;;;;29.00;23.25;23.30;46.60;;;;;;112762;1242;56507;-72
2023/01/23 19:26:13;;;;;;;;;26.00;23.75;23.40;46.80;;;;;;112754;1242;50485;-72
2023/01/23 19:28:40;;;;;;;;;28.25;24.00;23.40;46.90;;;;;;112769;1243;49085;-72
2023/01/23 19:31:15;;;;;;;;;27.75;23.50;23.40;47.00;;;;;;112748;1240;45219;-75
2023/01/23 19:33:42;;;;;;;;;23.50;22.00;23.40;47.10;;;;;;112769;1242;55678;-72
2023/01/23 19:36:11;;;;;;;;;26.75;22.00;23.50;47.10;;;;;;112770;1242;56689;-72
2023/01/23 19:38:38;;;;;;;;;29.50;23.50;23.50;47.10;;;;;;112763;1242;49489;-72
2023/01/23 19:41:28;;;;;;;;;25.25;19.50;23.50;47.10;;;;;;112772;1242;50399;-71
2023/01/23 19:43:56;;;;;;;;;29.67;25.00;23.50;47.10;;;;;;112655;1243;45463;-71
2023/01/23 19:46:29;;;;;;;;;23.75;20.75;23.60;47.40;;;;;;112770;1243;55591;-71
2023/01/23 19:48:56;;;;;;;;;25.00;23.75;23.60;47.10;;;;;;112740;1238;55924;-71
2023/01/23 19:51:27;;;;;;;;;27.25;23.00;23.60;47.10;;;;;;112751;1238;49329;-71
2023/01/23 19:53:54;;;;;;;;;22.75;21.75;23.60;47.10;;;;;;112748;1243;49675;-71